Time;durP1;ratioP1;P1;durP2;ratioP2;P2;SDS_P1;SDS_P2;PMS_P1;PMS_P2;Temp;Humidity;BMP_temperature;BMP_pressure;BME280_temperature;BME280_humidity;BME280_pressure;Samples;Min_cycle;Max_cycle;Signal;HPM_P1;HPM_P2
2021/12/10 00:01:09;;;;;;;;;;;;;;;2.21;88.39;95406.34;5074884;28;20027;-66
2021/12/10 00:03:37;;;;;;;;;;;;;;;2.09;89.58;95398.44;5081956;28;19927;-67
2021/12/10 00:06:07;;;;;;;;;;;;;;;2.06;89.56;95398.88;5095162;28;20272;-67
2021/12/10 00:08:33;;;;;;;;;;;;;;;2.10;89.22;95387.13;5094537;28;20027;-67
2021/12/10 00:11:00;;;;;;;;;;;;;;;1.88;89.58;95385.84;5094318;28;20284;-67
2021/12/10 00:13:25;;;;;;;;;;;;;;;1.82;89.72;95387.47;5095361;28;20342;-67
2021/12/10 00:15:54;;;;;;;;;;;;;;;1.79;90.07;95381.91;5095114;28;19916;-67
2021/12/10 00:18:20;;;;;;;;;;;;;;;1.82;90.21;95376.34;5095760;28;19951;-67
2021/12/10 00:20:46;;;;;;;;;;;;;;;1.72;90.07;95370.84;5095508;28;20387;-67
2021/12/10 00:23:13;;;;;;;;;;;;;;;1.64;89.59;95371.84;5095161;28;19939;-67
2021/12/10 00:25:40;;;;;;;;;;;;;;;1.75;89.35;95358.28;5088132;28;20426;-67
2021/12/10 00:28:18;;;;;;;;;;;;;;;1.65;89.94;95360.53;5084987;28;19938;-67
2021/12/10 00:30:58;;;;;;;;;;;;;;;1.55;90.18;95350.66;5095430;28;19927;-67
2021/12/10 00:33:25;;;;;;;;;;;;;;;1.63;90.42;95347.81;5095156;28;19919;-66
2021/12/10 00:35:51;;;;;;;;;;;;;;;1.52;90.51;95342.50;5094868;28;20383;-66
2021/12/10 00:38:16;;;;;;;;;;;;;;;1.54;90.81;95340.53;5095330;28;19922;-67
2021/12/10 00:40:42;;;;;;;;;;;;;;;1.51;90.28;95336.56;5095076;28;20341;-67
2021/12/10 00:43:07;;;;;;;;;;;;;;;1.53;89.48;95333.78;5094206;28;19916;-67
2021/12/10 00:45:33;;;;;;;;;;;;;;;1.44;90.01;95332.44;5094654;28;19919;-67
2021/12/10 00:47:58;;;;;;;;;;;;;;;1.46;90.53;95325.25;5094555;28;19916;-66
2021/12/10 00:50:29;;;;;;;;;;;;;;;1.38;90.78;95322.94;5094995;28;19922;-66
2021/12/10 00:52:55;;;;;;;;;;;;;;;1.21;92.14;95312.28;5094724;28;19916;-66
2021/12/10 00:55:21;;;;;;;;;;;;;;;1.29;90.33;95316.41;5094658;28;20358;-67
2021/12/10 00:57:46;;;;;;;;;;;;;;;1.12;92.16;95298.81;5094157;28;20413;-67
2021/12/10 01:00:17;;;;;;;;;;;;;;;0.99;93.00;95293.72;5094022;28;19915;-66
2021/12/10 01:02:42;;;;;;;;;;;;;;;0.91;92.59;95296.50;5094891;28;19920;-66
2021/12/10 01:05:08;;;;;;;;;;;;;;;1.04;92.35;95296.47;5092324;28;20262;-67
2021/12/10 01:07:34;;;;;;;;;;;;;;;0.94;92.44;95295.31;5093459;28;19923;-67
2021/12/10 01:10:01;;;;;;;;;;;;;;;0.99;91.75;95291.13;5093064;28;19999;-67
2021/12/10 01:12:27;;;;;;;;;;;;;;;1.04;91.93;95291.31;5094161;28;19923;-68
2021/12/10 01:28:57;;;;;;;3.23;2.03;;;;;;;0.84;93.01;95272.50;5048542;28;20417;-66
2021/12/10 01:31:23;;;;;;;3.95;2.05;;;;;;;0.94;91.35;95261.78;5079833;28;20397;-66
2021/12/10 01:33:52;;;;;;;3.83;1.90;;;;;;;0.80;91.73;95261.03;5092388;28;20416;-67
2021/12/10 01:36:17;;;;;;;6.30;2.00;;;;;;;0.75;92.85;95255.69;5092131;28;20402;-66
2021/12/10 01:38:46;;;;;;;3.10;1.87;;;;;;;0.79;92.38;95255.06;5092139;28;20439;-67
2021/12/10 01:41:16;;;;;;;5.20;2.00;;;;;;;0.73;93.07;95242.19;5092199;28;20378;-66
2021/12/10 01:43:43;;;;;;;4.05;2.00;;;;;;;0.83;91.58;95238.22;5092316;28;20717;-66
2021/12/10 01:46:18;;;;;;;4.63;1.90;;;;;;;0.78;91.32;95232.09;5091691;28;20477;-67
2021/12/10 01:48:48;;;;;;;3.05;1.98;;;;;;;0.97;90.83;95226.06;5091748;28;20401;-69
2021/12/10 01:51:17;;;;;;;4.68;1.88;;;;;;;0.91;90.08;95226.06;5090886;28;20739;-66
2021/12/10 01:53:45;;;;;;;4.10;2.05;;;;;;;0.81;91.21;95211.84;5092067;28;20394;-66
2021/12/10 01:56:15;;;;;;;2.55;1.88;;;;;;;0.76;91.05;95210.88;5092124;28;20892;-67
2021/12/10 01:58:41;;;;;;;5.03;2.03;;;;;;;0.86;90.42;95208.63;5091766;28;20389;-67
2021/12/10 02:01:11;;;;;;;6.38;1.83;;;;;;;0.94;89.28;95198.09;5091379;28;20898;-67
2021/12/10 02:03:37;;;;;;;3.93;1.70;;;;;;;0.90;90.16;95188.38;5092017;28;20823;-67
2021/12/10 02:06:05;;;;;;;2.95;1.80;;;;;;;0.92;89.12;95194.13;5091386;28;20750;-67
2021/12/10 02:08:31;;;;;;;5.43;1.90;;;;;;;0.67;90.09;95188.91;5091560;28;20398;-67
2021/12/10 02:10:57;;;;;;;3.92;1.95;;;;;;;0.61;91.17;95176.81;5091392;28;20469;-67
2021/12/10 02:13:22;;;;;;;4.27;1.97;;;;;;;0.54;91.76;95176.84;5091045;28;20524;-67
2021/12/10 02:15:48;;;;;;;4.27;1.83;;;;;;;0.59;91.91;95171.88;5090856;28;20421;-66
2021/12/10 02:18:14;;;;;;;4.30;2.00;;;;;;;0.40;92.06;95163.19;5092247;28;20738;-67
2021/12/10 02:21:01;;;;;;;3.05;1.50;;;;;;;0.53;91.15;95162.38;5095871;28;20397;-67
2021/12/10 02:23:32;;;;;;;3.78;1.77;;;;;;;0.60;91.33;95155.41;5081622;28;20508;-67
2021/12/10 02:25:58;;;;;;;3.10;1.70;;;;;;;0.50;91.39;95146.53;5098143;28;20758;-67
2021/12/10 02:28:24;;;;;;;4.03;2.22;;;;;;;0.52;91.31;95145.31;5098360;28;20454;-66
2021/12/10 02:30:49;;;;;;;3.27;1.93;;;;;;;0.57;90.72;95147.28;5098028;28;20757;-67
2021/12/10 02:33:16;;;;;;;2.90;1.83;;;;;;;0.59;90.77;95137.56;5114262;28;20477;-67
2021/12/10 02:35:42;;;;;;;4.00;1.80;;;;;;;0.46;91.84;95132.44;5097792;28;20409;-67
2021/12/10 02:38:08;;;;;;;3.00;1.77;;;;;;;0.66;89.99;95131.41;5098180;28;20395;-67
2021/12/10 02:40:35;;;;;;;4.50;2.00;;;;;;;0.56;91.14;95119.94;5098165;28;20408;-67
2021/12/10 02:43:06;;;;;;;2.20;2.00;;;;;;;0.57;90.86;95117.13;5098551;28;20425;-67
2021/12/10 02:45:33;;;;;;;3.85;1.98;;;;;;;0.47;91.77;95106.50;5098233;28;20433;-67
2021/12/10 02:47:58;;;;;;;3.40;1.98;;;;;;;0.33;92.92;95095.47;5098483;28;20878;-66
2021/12/10 02:50:27;;;;;;;5.38;1.90;;;;;;;0.34;92.81;95081.56;5098271;28;20455;-67
2021/12/10 02:52:53;;;;;;;3.63;2.10;;;;;;;0.48;92.27;95079.72;5098325;28;20382;-67
2021/12/10 02:55:20;;;;;;;2.60;1.87;;;;;;;0.49;92.15;95085.69;5097728;28;20396;-66
2021/12/10 02:57:52;;;;;;;2.60;1.90;;;;;;;0.32;92.77;95091.31;5098065;28;20413;-66
2021/12/10 03:00:22;;;;;;;6.40;1.90;;;;;;;0.28;93.45;95090.09;5097161;28;20425;-66
2021/12/10 03:02:48;;;;;;;2.95;2.00;;;;;;;0.50;91.91;95080.31;5086348;28;20423;-66
2021/12/10 03:05:14;;;;;;;4.67;1.80;;;;;;;0.58;89.93;95077.50;5095226;28;20432;-68
2021/12/10 03:07:41;;;;;;;3.30;1.80;;;;;;;0.65;88.92;95062.78;5097499;28;20389;-66
2021/12/10 03:10:12;;;;;;;3.38;1.90;;;;;;;0.56;89.21;95056.28;5097260;28;20481;-66
2021/12/10 03:12:39;;;;;;;3.97;2.00;;;;;;;0.68;89.08;95056.41;5098045;28;20481;-66
2021/12/10 03:15:08;;;;;;;4.15;1.92;;;;;;;0.61;88.39;95053.91;5097594;28;20405;-66
2021/12/10 03:17:34;;;;;;;4.25;2.00;;;;;;;0.55;88.42;95046.19;5097819;28;20409;-66
2021/12/10 03:20:02;;;;;;;3.13;2.05;;;;;;;0.44;88.76;95050.22;5097203;28;20390;-66
2021/12/10 03:22:28;;;;;;;3.63;1.80;;;;;;;0.16;90.47;95047.97;5097126;28;20546;-66
2021/12/10 03:24:54;;;;;;;4.33;2.00;;;;;;;0.09;91.93;95043.84;5097763;28;20468;-66
2021/12/10 03:27:21;;;;;;;4.20;1.60;;;;;;;0.17;91.60;95041.81;5098349;28;20841;-66
2021/12/10 03:29:48;;;;;;;2.75;2.10;;;;;;;0.15;91.63;95048.16;5097977;28;20421;-66
2021/12/10 03:32:18;;;;;;;2.75;1.80;;;;;;;-0.07;92.48;95038.16;5094722;28;20398;-67
2021/12/10 03:34:44;;;;;;;2.88;2.10;;;;;;;0.20;91.46;95031.09;5094608;28;20401;-67
2021/12/10 03:37:10;;;;;;;4.78;2.20;;;;;;;0.11;91.94;95028.97;5094580;28;20410;-66
2021/12/10 03:39:36;;;;;;;4.53;1.95;;;;;;;0.00;92.00;95028.59;5094530;28;20389;-66
2021/12/10 03:42:04;;;;;;;3.85;2.25;;;;;;;0.03;91.95;95018.91;5094198;28;20390;-66
2021/12/10 03:44:29;;;;;;;4.90;2.33;;;;;;;0.14;91.52;95023.41;5094464;28;20398;-66
2021/12/10 03:46:56;;;;;;;2.60;1.95;;;;;;;0.19;91.04;95016.66;5093364;28;20459;-67
2021/12/10 03:49:22;;;;;;;6.45;2.25;;;;;;;0.21;90.88;95012.09;5094511;28;20433;-67
2021/12/10 03:51:47;;;;;;;4.90;2.17;;;;;;;0.06;91.50;95006.38;5094278;28;20500;-66
2021/12/10 03:54:16;;;;;;;3.38;2.10;;;;;;;0.02;91.26;95000.06;5092788;28;20402;-66
2021/12/10 03:56:42;;;;;;;3.53;2.30;;;;;;;0.15;90.38;94984.56;5094324;28;20406;-65
2021/12/10 03:59:11;;;;;;;4.20;2.50;;;;;;;0.22;89.89;94984.53;5094161;28;20443;-66
2021/12/10 04:01:42;;;;;;;4.72;2.22;;;;;;;0.50;88.32;94973.88;5094024;28;20760;-67
2021/12/10 04:04:11;;;;;;;2.95;2.20;;;;;;;0.22;88.93;94971.66;5093618;28;20390;-66
2021/12/10 04:06:36;;;;;;;4.20;2.25;;;;;;;0.22;88.60;94956.22;5092326;28;20394;-66
2021/12/10 04:09:04;;;;;;;3.80;2.45;;;;;;;0.24;89.11;94947.25;5108778;28;20398;-66
2021/12/10 04:11:30;;;;;;;4.37;2.30;;;;;;;0.08;89.15;94942.59;5094381;28;20431;-66
2021/12/10 04:13:56;;;;;;;3.45;2.30;;;;;;;-0.06;90.13;94934.16;5093785;28;20390;-66
2021/12/10 04:16:24;;;;;;;6.63;2.93;;;;;;;-0.10;90.64;94930.41;5093690;28;20405;-66
2021/12/10 04:18:51;;;;;;;5.23;3.10;;;;;;;-0.09;90.69;94933.78;5093664;28;20490;-67
2021/12/10 04:21:18;;;;;;;5.90;3.33;;;;;;;-0.21;91.27;94928.50;5093634;28;20393;-66
2021/12/10 04:23:44;;;;;;;5.75;3.50;;;;;;;-0.30;91.59;94929.72;5093845;28;20437;-66
2021/12/10 04:26:12;;;;;;;5.30;3.35;;;;;;;-0.25;91.57;94922.19;5093543;28;20390;-66
2021/12/10 04:28:38;;;;;;;5.57;3.35;;;;;;;-0.23;91.43;94925.34;5093794;28;20421;-66
2021/12/10 04:31:03;;;;;;;4.72;3.40;;;;;;;-0.10;91.30;94927.84;5093327;28;20846;-66
2021/12/10 04:33:29;;;;;;;4.75;3.20;;;;;;;-0.28;92.06;94914.84;5092413;28;20394;-66
2021/12/10 04:35:58;;;;;;;5.90;3.23;;;;;;;-0.29;92.04;94922.81;5091805;28;20414;-68
2021/12/10 04:38:26;;;;;;;5.60;3.30;;;;;;;-0.32;92.25;94924.00;5093231;28;20471;-66
2021/12/10 04:40:54;;;;;;;6.10;3.28;;;;;;;-0.21;91.60;94915.63;5093574;28;20389;-66
2021/12/10 04:43:22;;;;;;;6.97;3.30;;;;;;;-0.13;91.24;94912.81;5092944;28;20416;-66
2021/12/10 04:45:48;;;;;;;5.60;3.50;;;;;;;-0.21;90.81;94907.91;5093173;28;20900;-66
2021/12/10 04:48:13;;;;;;;7.32;4.30;;;;;;;-0.21;90.81;94897.59;5093124;28;20390;-66
2021/12/10 04:50:39;;;;;;;5.95;4.00;;;;;;;-0.30;91.12;94896.28;5092799;28;20390;-66
2021/12/10 04:53:07;;;;;;;7.47;4.77;;;;;;;-0.36;91.73;94894.53;5093352;28;20841;-66
2021/12/10 04:55:34;;;;;;;7.90;5.00;;;;;;;-0.34;92.08;94891.75;5092793;28;20386;-66
2021/12/10 04:57:59;;;;;;;9.38;5.88;;;;;;;-0.34;92.27;94892.53;5093256;28;20870;-66
2021/12/10 05:00:30;;;;;;;8.15;5.82;;;;;;;-0.44;93.01;94885.25;5092756;28;20471;-65
2021/12/10 05:03:00;;;;;;;7.57;5.55;;;;;;;-0.37;92.39;94880.06;5092473;28;20885;-66
2021/12/10 05:05:25;;;;;;;10.50;5.55;;;;;;;-0.43;92.74;94871.38;5092787;28;20422;-65
2021/12/10 05:07:51;;;;;;;6.23;5.00;;;;;;;-0.48;93.30;94860.94;5092602;28;20888;-66
2021/12/10 05:10:18;;;;;;;9.30;6.20;;;;;;;-0.55;93.69;94855.00;5092200;28;20390;-65
2021/12/10 05:12:44;;;;;;;10.40;5.97;;;;;;;-0.60;93.87;94852.28;5092833;28;20390;-65
2021/12/10 05:15:13;;;;;;;8.23;5.40;;;;;;;-0.61;94.35;94857.63;5091787;28;20782;-67
2021/12/10 05:17:39;;;;;;;7.37;5.77;;;;;;;-0.54;93.94;94851.44;5092314;28;20803;-66
2021/12/10 05:20:12;;;;;;;7.63;5.80;;;;;;;-0.61;94.66;94844.75;5092094;28;20393;-65
2021/12/10 05:22:40;;;;;;;9.23;6.13;;;;;;;-0.49;94.36;94830.25;5091519;28;20398;-66
2021/12/10 05:25:07;;;;;;;12.23;7.28;;;;;;;-0.61;94.37;94824.97;5091089;28;20426;-66
2021/12/10 05:27:33;;;;;;;9.70;6.55;;;;;;;-0.68;94.75;94810.56;5091036;28;20426;-68
2021/12/10 05:29:59;;;;;;;10.38;6.80;;;;;;;-0.73;95.18;94806.06;5092206;28;20492;-66
2021/12/10 05:32:25;;;;;;;9.40;6.85;;;;;;;-0.63;95.35;94811.53;5092246;28;20394;-66
2021/12/10 05:34:51;;;;;;;11.48;7.47;;;;;;;-0.66;94.69;94806.78;5092257;28;20394;-65
2021/12/10 05:37:18;;;;;;;10.43;7.00;;;;;;;-0.72;95.53;94815.31;5092115;28;20421;-65
2021/12/10 05:39:44;;;;;;;13.43;7.20;;;;;;;-0.68;95.11;94806.22;5092171;28;20443;-65
2021/12/10 05:42:09;;;;;;;9.63;6.38;;;;;;;-0.64;94.81;94809.16;5091941;28;20402;-66
2021/12/10 05:44:38;;;;;;;11.00;6.70;;;;;;;-0.63;94.80;94808.97;5091992;28;20455;-66
2021/12/10 05:47:04;;;;;;;8.05;6.70;;;;;;;-0.69;95.03;94809.00;5075515;28;20381;-66
2021/12/10 05:49:29;;;;;;;10.60;6.60;;;;;;;-0.58;94.99;94801.41;5092343;28;20392;-65
2021/12/10 05:51:55;;;;;;;8.83;7.00;;;;;;;-0.62;95.06;94809.75;5092261;28;20394;-65
2021/12/10 05:54:20;;;;;;;13.43;8.10;;;;;;;-0.69;95.20;94809.78;5091753;28;20393;-65
2021/12/10 05:56:46;;;;;;;11.05;7.50;;;;;;;-0.55;94.86;94815.63;5091152;28;20405;-66
2021/12/10 05:59:11;;;;;;;8.80;7.17;;;;;;;-0.53;94.75;94808.50;5092056;28;20493;-66
2021/12/10 06:01:37;;;;;;;9.67;7.00;;;;;;;-0.55;94.12;94803.56;5091856;28;20888;-66
2021/12/10 06:04:03;;;;;;;9.00;6.50;;;;;;;-0.66;95.03;94808.56;5092185;28;20853;-65
2021/12/10 06:06:31;;;;;;;9.15;6.20;;;;;;;-0.57;94.22;94804.78;5091646;28;20435;-65
2021/12/10 06:08:59;;;;;;;7.90;5.78;;;;;;;-0.80;95.35;94810.44;5091275;28;20477;-65
2021/12/10 06:11:26;;;;;;;8.50;5.85;;;;;;;-0.61;94.36;94804.38;5091464;28;20439;-65
2021/12/10 06:13:52;;;;;;;7.10;5.18;;;;;;;-0.68;94.77;94798.50;5091827;28;20390;-65
2021/12/10 06:16:18;;;;;;;10.80;6.00;;;;;;;-0.45;93.97;94785.13;5091486;28;20406;-65
2021/12/10 06:18:44;;;;;;;10.07;5.90;;;;;;;-0.58;93.47;94780.03;5091868;28;20535;-65
2021/12/10 06:21:10;;;;;;;7.80;5.83;;;;;;;-0.59;93.48;94757.88;5092362;28;20465;-66
2021/12/10 06:23:35;;;;;;;9.07;6.67;;;;;;;-0.63;94.09;94754.94;5091922;28;20402;-65
2021/12/10 06:26:03;;;;;;;9.53;6.30;;;;;;;-0.61;94.78;94750.38;5091314;28;20869;-67
2021/12/10 06:28:29;;;;;;;9.02;6.20;;;;;;;-0.43;93.95;94745.31;5091684;28;20386;-66
2021/12/10 06:30:54;;;;;;;9.57;6.43;;;;;;;-0.50;93.58;94738.63;5091514;28;20398;-66
2021/12/10 06:33:22;;;;;;;11.13;6.77;;;;;;;-0.48;93.89;94742.56;5101345;28;20392;-66
2021/12/10 06:35:51;;;;;;;11.73;6.80;;;;;;;-0.50;93.70;94747.13;5081759;28;20400;-66
2021/12/10 06:38:18;;;;;;;9.07;6.53;;;;;;;-0.40;93.21;94733.81;5092034;28;20515;-66
2021/12/10 06:40:44;;;;;;;11.97;7.20;;;;;;;-0.34;93.08;94720.13;5091535;28;20463;-67
2021/12/10 06:43:11;;;;;;;10.10;7.18;;;;;;;-0.29;92.92;94729.78;5091857;28;20451;-63
2021/12/10 06:45:38;;;;;;;9.90;8.02;;;;;;;-0.34;93.03;94722.69;5091923;28;20398;-63
2021/12/10 06:48:06;;;;;;;10.77;7.70;;;;;;;-0.24;92.52;94723.00;5092127;28;20498;-64
2021/12/10 06:50:35;;;;;;;11.45;7.20;;;;;;;-0.25;92.63;94708.56;5090226;28;20473;-63
2021/12/10 06:53:00;;;;;;;11.32;7.15;;;;;;;-0.22;91.99;94705.53;5090948;28;20382;-65
2021/12/10 06:55:27;;;;;;;10.43;7.13;;;;;;;-0.19;92.15;94701.78;5091634;28;20782;-65
2021/12/10 06:57:53;;;;;;;10.07;7.40;;;;;;;-0.22;93.04;94697.81;5091120;28;20398;-64
2021/12/10 07:00:24;;;;;;;10.20;7.18;;;;;;;-0.29;93.04;94693.75;5074400;28;20441;-64
2021/12/10 07:02:49;;;;;;;10.80;6.97;;;;;;;-0.12;92.65;94692.22;5091296;28;20432;-64
2021/12/10 07:05:15;;;;;;;9.40;6.68;;;;;;;-0.25;93.31;94687.97;5091218;28;20413;-64
2021/12/10 07:07:41;;;;;;;10.57;6.43;;;;;;;-0.25;92.45;94669.94;5093146;28;20870;-65
2021/12/10 07:10:08;;;;;;;9.43;6.18;;;;;;;-0.30;93.23;94663.88;5094477;28;20397;-64
2021/12/10 07:12:36;;;;;;;9.32;5.85;;;;;;;-0.29;93.07;94652.56;5095270;28;20390;-65
2021/12/10 07:15:03;;;;;;;9.07;6.10;;;;;;;-0.33;92.50;94641.91;5094986;28;20405;-66
2021/12/10 07:17:29;;;;;;;11.32;6.47;;;;;;;-0.35;92.87;94646.50;5095144;28;20410;-64
2021/12/10 07:19:55;;;;;;;9.68;5.90;;;;;;;-0.29;92.16;94645.66;5094644;28;20482;-63
2021/12/10 07:22:20;;;;;;;13.25;6.88;;;;;;;-0.24;91.95;94637.28;5094645;28;20866;-63
2021/12/10 07:24:46;;;;;;;10.10;7.40;;;;;;;-0.24;91.44;94630.34;5094824;28;20405;-64
2021/12/10 07:27:11;;;;;;;9.83;6.80;;;;;;;-0.12;90.88;94618.34;5095047;28;20400;-64
2021/12/10 07:29:38;;;;;;;7.63;5.93;;;;;;;0.02;89.70;94613.06;5094524;28;20397;-64
2021/12/10 07:32:04;;;;;;;7.60;6.03;;;;;;;-0.05;89.42;94608.75;5094654;28;20417;-64
2021/12/10 07:34:30;;;;;;;9.57;6.75;;;;;;;0.07;88.18;94613.97;5094391;28;20420;-64
2021/12/10 07:36:55;;;;;;;9.30;6.33;;;;;;;0.05;87.77;94613.44;5097097;28;20422;-64
2021/12/10 07:39:21;;;;;;;9.20;5.88;;;;;;;0.14;86.73;94611.34;5090679;28;20456;-64
2021/12/10 07:41:47;;;;;;;6.68;5.50;;;;;;;0.07;85.70;94613.97;5094009;28;20413;-65
2021/12/10 07:44:13;;;;;;;7.43;4.80;;;;;;;0.25;84.99;94608.84;5094006;28;20477;-66
2021/12/10 07:46:40;;;;;;;5.32;4.28;;;;;;;0.16;83.07;94606.78;5094304;28;20456;-66
2021/12/10 07:49:13;;;;;;;6.30;4.50;;;;;;;0.08;82.09;94617.34;5094247;28;20951;-65
2021/12/10 07:51:39;;;;;;;9.70;6.00;;;;;;;2.66;100.00;94606.09;5094288;28;20813;-67
2021/12/10 07:54:05;;;;;;;5.17;4.10;;;;;;;2.86;77.42;94606.44;5094205;28;20421;-66
2021/12/10 07:56:32;;;;;;;4.83;3.40;;;;;;;1.97;75.18;94607.03;5094449;28;20766;-67
2021/12/10 07:58:59;;;;;;;4.45;3.55;;;;;;;1.37;76.67;94603.91;5093946;28;20394;-67
2021/12/10 08:01:28;;;;;;;4.45;3.80;;;;;;;1.09;76.29;94605.34;5088574;28;20491;-66
2021/12/10 08:03:56;;;;;;;8.60;3.90;;;;;;;1.11;77.39;94593.00;5081749;28;20413;-66
2021/12/10 08:06:22;;;;;;;6.60;3.97;;;;;;;1.05;77.66;94599.06;5094202;28;20440;-66
2021/12/10 08:08:49;;;;;;;5.97;4.10;;;;;;;0.79;78.28;94605.34;5093284;28;20398;-67
2021/12/10 08:11:15;;;;;;;5.25;4.20;;;;;;;0.84;78.84;94604.69;5093717;28;20390;-67
2021/12/10 08:13:40;;;;;;;6.50;4.53;;;;;;;0.82;78.94;94604.94;5093829;28;20485;-66
2021/12/10 08:16:06;;;;;;;9.87;5.70;;;;;;;0.98;78.55;94594.97;5093528;28;20634;-65
2021/12/10 08:18:32;;;;;;;6.87;4.77;;;;;;;0.70;80.04;94601.53;5093129;28;20396;-66
2021/12/10 08:20:58;;;;;;;6.27;4.50;;;;;;;0.69;79.75;94605.09;5093480;28;20459;-64
2021/12/10 08:23:24;;;;;;;4.65;3.90;;;;;;;0.88;79.39;94602.47;5093444;28;20822;-65
2021/12/10 08:25:51;;;;;;;7.10;4.40;;;;;;;0.82;79.48;94606.72;5092635;28;20391;-66
2021/12/10 08:28:21;;;;;;;7.47;4.60;;;;;;;0.87;79.67;94601.69;5093525;28;20412;-66
2021/12/10 08:30:47;;;;;;;7.00;4.43;;;;;;;1.00;78.57;94609.25;5093855;28;20879;-66
2021/12/10 08:33:13;;;;;;;6.77;4.63;;;;;;;0.90;80.00;94601.22;5093585;28;20398;-66
2021/12/10 08:35:45;;;;;;;7.38;5.03;;;;;;;0.82;80.15;94610.09;5093332;28;20421;-66
2021/12/10 08:38:12;;;;;;;5.13;4.18;;;;;;;0.93;80.48;94602.59;5092126;28;20465;-66
2021/12/10 08:40:43;;;;;;;6.53;4.22;;;;;;;0.93;79.59;94607.75;5083649;28;20427;-66
2021/12/10 08:43:08;;;;;;;7.22;4.38;;;;;;;0.98;79.60;94611.25;5092776;28;20501;-65
2021/12/10 08:45:36;;;;;;;6.77;4.33;;;;;;;1.17;79.43;94612.72;5092807;28;20971;-65
2021/12/10 08:48:02;;;;;;;6.82;4.18;;;;;;;1.23;78.54;94614.44;5092537;28;20397;-66
2021/12/10 08:50:28;;;;;;;6.97;4.28;;;;;;;1.17;78.81;94614.56;5091337;28;20394;-65
2021/12/10 08:52:57;;;;;;;4.82;3.85;;;;;;;1.14;79.54;94612.41;5093110;28;20405;-65
2021/12/10 08:55:26;;;;;;;5.65;3.55;;;;;;;1.17;79.05;94617.88;5092795;28;20489;-65
2021/12/10 08:57:51;;;;;;;4.47;3.53;;;;;;;1.33;77.79;94626.81;5092767;28;20413;-64
2021/12/10 09:00:17;;;;;;;4.47;3.83;;;;;;;1.53;77.18;94613.56;5092975;28;20421;-65
2021/12/10 09:02:43;;;;;;;5.32;3.38;;;;;;;2.02;73.07;94614.91;5092782;28;20863;-65
2021/12/10 09:05:10;;;;;;;4.88;3.53;;;;;;;1.95;73.79;94611.66;5092146;28;20390;-65
2021/12/10 09:07:38;;;;;;;4.15;3.33;;;;;;;1.87;73.88;94607.63;5092382;28;20425;-65
2021/12/10 09:10:08;;;;;;;5.05;3.40;;;;;;;1.65;74.98;94598.88;5091370;28;20406;-65
2021/12/10 09:12:34;;;;;;;5.40;3.15;;;;;;;1.95;72.95;94593.59;5092373;28;20404;-65
2021/12/10 09:15:01;;;;;;;5.43;3.30;;;;;;;1.76;74.09;94600.66;5092199;28;20473;-65
2021/12/10 09:17:30;;;;;;;4.70;3.17;;;;;;;1.86;73.72;94598.31;5092628;28;20405;-66
2021/12/10 09:19:59;;;;;;;4.72;2.80;;;;;;;2.14;71.78;94594.22;5090905;28;20398;-65
2021/12/10 09:22:25;;;;;;;4.70;2.72;;;;;;;1.95;71.24;94589.19;5092106;28;20393;-64
2021/12/10 09:24:54;;;;;;;3.60;2.50;;;;;;;2.25;72.65;94581.28;5091958;28;20871;-65
2021/12/10 09:27:20;;;;;;;4.55;2.78;;;;;;;2.60;68.98;94577.78;5092633;28;20454;-65
2021/12/10 09:29:48;;;;;;;4.95;2.83;;;;;;;2.72;68.32;94576.72;5091022;28;20897;-66
2021/12/10 09:32:16;;;;;;;3.50;2.60;;;;;;;2.46;69.36;94572.88;5089854;28;20402;-65
2021/12/10 09:34:43;;;;;;;4.05;2.53;;;;;;;2.34;70.21;94577.31;5091651;28;20405;-66
2021/12/10 09:37:11;;;;;;;3.13;2.45;;;;;;;2.37;70.18;94563.16;5091475;28;20408;-66
2021/12/10 09:39:37;;;;;;;4.00;2.50;;;;;;;2.38;68.62;94557.75;5084614;28;20487;-66
2021/12/10 09:42:04;;;;;;;3.33;2.38;;;;;;;2.19;70.23;94563.31;5091694;28;20392;-66
2021/12/10 09:44:29;;;;;;;3.45;2.50;;;;;;;2.32;69.34;94550.13;5091812;28;20484;-66
2021/12/10 09:46:59;;;;;;;3.35;2.47;;;;;;;2.46;68.85;94546.25;5092000;28;20473;-67
2021/12/10 09:49:27;;;;;;;2.95;2.15;;;;;;;2.62;68.02;94547.31;5082187;28;20388;-66
2021/12/10 09:51:57;;;;;;;3.42;2.28;;;;;;;2.63;67.67;94535.94;5092170;28;20874;-67
2021/12/10 09:54:25;;;;;;;5.88;2.55;;;;;;;2.75;67.45;94531.50;5091853;28;20469;-68
2021/12/10 09:56:56;;;;;;;3.63;2.55;;;;;;;2.67;69.11;94535.28;5090862;28;20931;-66
2021/12/10 09:59:22;;;;;;;3.47;2.33;;;;;;;2.75;67.75;94532.28;5091611;28;20503;-66
2021/12/10 10:01:51;;;;;;;4.50;2.45;;;;;;;2.84;68.14;94536.03;5091957;28;20398;-67
2021/12/10 10:04:18;;;;;;;2.22;2.03;;;;;;;3.19;65.91;94541.00;5091795;28;20509;-67
2021/12/10 10:06:58;;;;;;;3.80;2.35;;;;;;;3.15;66.04;94529.56;5091632;28;20425;-67
2021/12/10 10:09:24;;;;;;;5.20;2.40;;;;;;;3.05;65.66;94523.47;5091319;28;20421;-66
2021/12/10 10:12:01;;;;;;;2.63;2.10;;;;;;;3.16;65.31;94514.84;5090437;28;20401;-67
2021/12/10 10:14:27;;;;;;;2.88;1.95;;;;;;;3.07;64.25;94505.88;5077379;28;20398;-67
2021/12/10 10:16:53;;;;;;;4.20;2.17;;;;;;;3.50;63.48;94502.63;5090205;28;20421;-68
2021/12/10 10:19:19;;;;;;;2.53;2.00;;;;;;;3.37;63.98;94497.78;5091650;28;20478;-68
2021/12/10 10:21:49;;;;;;;2.13;1.90;;;;;;;3.30;63.19;94487.59;5091906;28;20465;-66
2021/12/10 10:24:16;;;;;;;3.10;1.90;;;;;;;3.07;64.20;94483.38;5091502;28;20871;-66
2021/12/10 10:26:45;;;;;;;3.15;1.98;;;;;;;3.08;64.20;94489.34;5091595;28;20386;-67
2021/12/10 10:29:19;;;;;;;2.80;1.80;;;;;;;3.18;63.87;94474.72;5091573;28;20801;-67
2021/12/10 10:31:50;;;;;;;3.30;2.00;;;;;;;3.22;63.99;94475.84;5091387;28;20751;-68
2021/12/10 10:34:16;;;;;;;2.35;2.08;;;;;;;3.31;64.05;94474.41;5091599;28;20393;-67
2021/12/10 10:36:42;;;;;;;3.13;2.00;;;;;;;3.28;64.28;94461.97;5091442;28;20463;-66
2021/12/10 10:39:15;;;;;;;2.87;1.83;;;;;;;3.38;64.74;94453.53;5090633;28;20394;-67
2021/12/10 10:41:44;;;;;;;4.35;2.10;;;;;;;3.21;64.55;94452.78;5093424;28;20850;-67
2021/12/10 10:44:09;;;;;;;2.43;1.90;;;;;;;3.44;63.74;94447.41;5095003;28;20437;-68
2021/12/10 10:46:35;;;;;;;2.70;1.77;;;;;;;3.33;63.46;94449.09;5095625;28;20417;-67
2021/12/10 10:49:02;;;;;;;2.45;1.70;;;;;;;3.40;63.86;94445.53;5095737;28;20507;-67
2021/12/10 10:51:35;;;;;;;2.63;1.80;;;;;;;3.54;63.41;94449.34;5095081;28;20455;-67
2021/12/10 10:54:06;;;;;;;2.97;2.17;;;;;;;3.41;63.70;94441.91;5095326;28;20811;-67
2021/12/10 10:56:43;;;;;;;2.83;2.03;;;;;;;3.58;62.78;94435.66;5093933;28;20405;-68
2021/12/10 10:59:24;;;;;;;1.65;1.55;;;;;;;3.70;63.29;94430.38;5094800;28;20393;-67
2021/12/10 11:01:59;;;;;;;2.78;1.55;;;;;;;3.56;63.15;94429.16;5095088;28;20394;-67
2021/12/10 11:04:46;;;;;;;2.80;1.52;;;;;;;3.34;61.47;94416.97;5095308;28;20747;-67
2021/12/10 11:07:24;;;;;;;2.55;1.67;;;;;;;3.32;63.01;94415.66;5094621;28;20397;-67
2021/12/10 11:10:08;;;;;;;2.53;1.60;;;;;;;3.22;64.65;94420.72;5094296;28;20497;-67
2021/12/10 11:12:38;;;;;;;3.42;1.90;;;;;;;3.84;63.07;94413.44;5094774;28;20394;-67
2021/12/10 11:15:14;;;;;;;4.00;2.10;;;;;;;3.96;63.25;94419.25;5094344;28;20874;-67
2021/12/10 11:17:47;;;;;;;3.33;1.80;;;;;;;3.85;61.76;94427.94;5094500;28;20742;-68
2021/12/10 11:20:21;;;;;;;3.97;2.03;;;;;;;4.04;62.12;94420.63;5094693;28;20393;-68
2021/12/10 11:22:52;;;;;;;3.22;1.70;;;;;;;3.98;61.50;94424.19;5094836;28;20390;-68
2021/12/10 11:25:22;;;;;;;3.10;1.75;;;;;;;3.68;60.20;94422.03;5094244;28;20892;-68
2021/12/10 11:27:49;;;;;;;2.67;1.90;;;;;;;3.42;60.47;94428.72;5087401;28;20434;-68
2021/12/10 11:30:42;;;;;;;2.70;1.98;;;;;;;3.31;61.74;94432.22;5086192;28;20402;-68
2021/12/10 11:33:14;;;;;;;3.13;1.80;;;;;;;3.21;60.89;94427.69;5029663;28;20395;-68
2021/12/10 11:35:50;;;;;;;3.45;2.00;;;;;;;3.15;61.64;94444.16;5031013;28;20399;-68
2021/12/10 11:38:28;;;;;;;2.70;1.88;;;;;;;3.40;62.22;94442.94;5030498;28;20422;-68
2021/12/10 11:41:17;;;;;;;3.45;1.90;;;;;;;3.32;62.71;94441.56;5031074;28;20438;-68
2021/12/10 11:44:17;;;;;;;1.63;1.00;;;;;;;3.26;62.42;94437.31;5031558;28;20399;-68
2021/12/10 11:47:25;;;;;;;1.60;1.23;;;;;;;3.16;62.70;94435.38;5030989;28;20509;-68
2021/12/10 11:49:39;;;;;;;1.30;1.20;;;;;;;3.19;64.51;94441.88;5030639;28;20842;-68
2021/12/10 11:52:15;;;;;;;1.83;1.40;;;;;;;3.10;67.12;94438.94;5031200;28;20478;-68
2021/12/10 11:55:07;;;;;;;4.30;2.70;;;;;;;2.93;70.65;94425.22;5015374;28;20956;-68
2021/12/10 11:57:37;;;;;;;6.50;3.92;;;;;;;2.80;74.42;94436.66;5014195;28;20419;-69
2021/12/10 12:00:19;;;;;;;1.70;1.52;;;;;;;2.47;77.77;94442.63;5026676;28;20422;-69
2021/12/10 12:02:52;;;;;;;1.38;1.33;;;;;;;2.15;82.63;94433.81;5031864;28;20991;-68
2021/12/10 12:05:25;;;;;;;1.55;1.45;;;;;;;1.86;85.62;94433.03;5031511;28;20934;-68